Startpagina
METAR-TAF:

METAR-TAF

Vliegvelden :

Vliegbasis Koksijde

Koksijde, België

breedte: 51-05N, lengte: 002-39E, hoogte: 4 m

Actueel weer

Dit bericht is 34 minuten geleden gemaakt, om 19:25 UTC
Wind 11 kt uit het noorden
Temperatuur 14°C
Vochtigheid 82%
Druk 1004 hPa
Zicht 10 km of meer

METAR: EBFN 031925Z AUTO 01011KT 9999 BKN011/// BKN090/// 14/11 Q1004 GRN

Tijdstip: 21:59 (19:59 UTC)

Verwachting

Dit bericht is 4 uur en het 18 minuten geleden gemaakt, om 15:41 UTC
Verwachting geldig van 03 om 19 UTC tot 04 om 07 UTC
Wind 17 kt uit het noorden
Zicht 10 km of meer
Weinig wolken op 1200 ft
Gebroken wolken op 11000 ft
Tijdelijke
van 03 om 21 UTC tot 04 om 07 UTC
Gebroken wolken op 1000 ft
Gebroken wolken op 10000 ft
Kans 30% :
Tijdelijke
van 04 om 05 UTC tot 04 om 07 UTC
Zicht: 6000 m
Verspreide wolken op 1500 ft
Verspreide wolken op 4000 ft
lichte regenbuien

TAF: EBFN 031541Z 0319/0407 36017KT 9999 FEW012 BKN110 TEMPO 0321/0407 BKN010 BKN100 PROB30 TEMPO 0405/0407 6000 -SHRA SCT015 SCT040

Waarnemingen en weersverwachtingen van meer dan 4000 vliegvelden (METAR en TAF).

De beschikbare stations zijn de gele en rode punten op de kaart.

Ga met uw muis naar het station om de naam te zien.

Klik dan om waarnemingen en weersverwachtingen te zien.

kaart wijzigen: klik op de groene knoppen met een zwart kruis om in te zoomen, op de groene knop met een streepje om uit te zoomen of op de groene pijlen voor aangrenzende kaarten.


METAR-TAF: